Terminal Aerodrome Forecast
Issued by NWS Tampa Bay Area, FL

Home | Current Version | Previous Version | Text Only | Print | Product List | Glossary On
Versions: 1 2 3 4 5 6 7 8 9 10 11 12 13 14 15 16 17 18 19 20 21 22 23 24 25 26
000
FTUS42 KTBW 260500
TAFTPA
TAF
KTPA 260537Z 2606/2706 19008KT P6SM SCT150 BKN250
     FM260900 23011G17KT P6SM VCSH SCT015 OVC035
      TEMPO 2609/2612 4SM SHRA BKN020
     FM261200 29014G22KT P6SM VCSH SCT015 OVC035
     FM261500 30020G30KT P6SM FEW020 BKN035
     FM270000 31012G20KT P6SM FEW035=

USA.gov is the U.S. government's official web portal to all federal, state and local government web resources and services.